Time;durP1;ratioP1;P1;durP2;ratioP2;P2;SDS_P1;SDS_P2;PMS_P1;PMS_P2;Temp;Humidity;BMP_temperature;BMP_pressure;BME280_temperature;BME280_humidity;BME280_pressure;Samples;Min_cycle;Max_cycle;Signal;HPM_P1;HPM_P2
2024/03/15 00:00:24;;;;;;;19.45;3.25;;;;;;;10.56;100.00;98570.66;5085608;28;20110;-60
2024/03/15 00:02:51;;;;;;;7.60;2.05;;;;;;;10.56;100.00;98556.03;5085489;28;20056;-59
2024/03/15 00:05:20;;;;;;;13.82;2.08;;;;;;;10.56;100.00;98569.88;5087208;28;20050;-59
2024/03/15 00:07:48;;;;;;;10.90;2.20;;;;;;;10.56;100.00;98565.13;5081655;28;20053;-59
2024/03/15 00:10:15;;;;;;;7.65;1.60;;;;;;;10.56;100.00;98572.63;5079343;28;20036;-60
2024/03/15 00:12:43;;;;;;;7.53;1.58;;;;;;;10.56;100.00;98567.09;5081762;28;20487;-59
2024/03/15 00:15:11;;;;;;;8.90;2.13;;;;;;;10.54;100.00;98572.25;5084075;28;20055;-59
2024/03/15 00:17:38;;;;;;;7.30;1.33;;;;;;;10.54;100.00;98572.25;5090890;28;20055;-59
2024/03/15 00:20:07;;;;;;;6.00;1.70;;;;;;;10.52;100.00;98572.63;5090505;28;20047;-60
2024/03/15 00:22:36;;;;;;;12.27;1.80;;;;;;;10.48;100.00;98582.94;5090951;28;20532;-58
2024/03/15 00:25:04;;;;;;;8.90;1.88;;;;;;;10.45;100.00;98577.41;5088394;28;20052;-56
2024/03/15 00:27:32;;;;;;;18.80;5.43;;;;;;;10.41;100.00;98580.16;5089754;28;20054;-56
2024/03/15 00:30:00;;;;;;;6.22;1.45;;;;;;;10.38;100.00;98584.50;5089945;28;20048;-58
2024/03/15 00:32:27;;;;;;;9.35;1.77;;;;;;;10.36;100.00;98578.59;5090481;28;20052;-55
2024/03/15 00:34:54;;;;;;;9.07;1.23;;;;;;;10.35;100.00;98588.06;5089688;28;20452;-57
2024/03/15 00:37:22;;;;;;;10.27;2.33;;;;;;;10.33;100.00;98579.38;5089017;28;20048;-58
2024/03/15 00:39:49;;;;;;;6.75;1.77;;;;;;;10.34;100.00;98580.16;5090899;28;20071;-57
2024/03/15 00:42:17;;;;;;;4.22;1.52;;;;;;;10.32;100.00;98583.34;5090641;28;20066;-58
2024/03/15 00:44:44;;;;;;;12.45;1.75;;;;;;;10.33;100.00;98582.13;5088974;28;20764;-57
2024/03/15 00:47:12;;;;;;;9.02;1.60;;;;;;;10.32;100.00;98577.00;5090761;28;20044;-56
2024/03/15 00:49:40;;;;;;;7.55;2.13;;;;;;;10.31;100.00;98576.22;5089933;28;20501;-57
2024/03/15 00:52:07;;;;;;;8.40;2.03;;;;;;;10.32;100.00;98583.34;5086535;28;20040;-58
2024/03/15 00:54:34;;;;;;;8.18;1.17;;;;;;;10.35;100.00;98587.28;5076841;28;20044;-57
2024/03/15 00:57:03;;;;;;;7.78;2.05;;;;;;;10.33;100.00;98582.13;5091002;28;20056;-58
2024/03/15 00:59:30;;;;;;;3.78;1.30;;;;;;;10.34;100.00;98589.25;5090088;28;20088;-57
2024/03/15 01:01:59;;;;;;;10.30;1.23;;;;;;;10.34;100.00;98585.69;5090138;28;20078;-58
2024/03/15 01:04:29;;;;;;;7.40;1.10;;;;;;;10.35;100.00;98587.28;5089605;28;20032;-58
2024/03/15 01:06:56;;;;;;;3.58;0.80;;;;;;;10.34;100.00;98591.22;5090136;28;20036;-57
2024/03/15 01:09:24;;;;;;;7.10;1.10;;;;;;;10.34;100.00;98594.78;5071893;28;20411;-60
2024/03/15 01:11:51;;;;;;;4.68;1.10;;;;;;;10.35;100.00;98603.88;5081467;28;20056;-61
2024/03/15 01:14:20;;;;;;;4.85;1.38;;;;;;;10.34;100.00;98608.63;5089949;28;20047;-58
2024/03/15 01:16:48;;;;;;;0.95;0.63;;;;;;;10.34;100.00;98602.28;5089683;28;20072;-58
2024/03/15 01:19:15;;;;;;;7.05;0.85;;;;;;;10.34;100.00;98592.03;5089659;28;20051;-59
2024/03/15 01:21:43;;;;;;;1.50;0.80;;;;;;;10.35;100.00;98590.06;5089712;28;20055;-58
2024/03/15 01:24:12;;;;;;;4.90;0.75;;;;;;;10.35;100.00;98610.19;5089243;28;20091;-58
2024/03/15 01:26:41;;;;;;;5.13;0.50;;;;;;;10.33;100.00;98604.25;5087324;28;20080;-57
2024/03/15 01:29:08;;;;;;;1.77;0.47;;;;;;;10.32;100.00;98616.53;5089303;28;20708;-58
2024/03/15 01:31:36;;;;;;;2.22;0.65;;;;;;;10.32;100.00;98601.91;5088952;28;20048;-59
2024/03/15 01:34:03;;;;;;;2.03;0.65;;;;;;;10.31;100.00;98609.41;5088400;28;20044;-59
2024/03/15 01:36:30;;;;;;;4.63;0.50;;;;;;;10.33;100.00;98612.56;5087913;28;20420;-59
2024/03/15 01:38:58;;;;;;;2.88;0.90;;;;;;;10.32;100.00;98622.06;5089634;28;20048;-59
2024/03/15 01:41:25;;;;;;;1.88;0.32;;;;;;;10.32;100.00;98611.00;5088822;28;20051;-59
2024/03/15 01:43:54;;;;;;;2.53;0.43;;;;;;;10.32;100.00;98611.00;5089405;28;20048;-59
2024/03/15 01:46:23;;;;;;;6.25;1.67;;;;;;;10.33;100.00;98628.34;5087857;28;20673;-59
2024/03/15 01:48:54;;;;;;;2.97;0.68;;;;;;;10.30;100.00;98610.59;5089452;28;20505;-59
2024/03/15 01:51:22;;;;;;;1.30;0.47;;;;;;;10.30;100.00;98624.41;5089050;28;20055;-60
2024/03/15 01:53:50;;;;;;;3.67;1.02;;;;;;;10.28;100.00;98618.50;5089095;28;20425;-59
2024/03/15 01:56:17;;;;;;;2.22;0.90;;;;;;;10.28;100.00;98615.72;5089060;28;20036;-59
2024/03/15 01:58:45;;;;;;;2.53;0.70;;;;;;;10.27;100.00;98613.38;5088523;28;20048;-59
2024/03/15 02:01:13;;;;;;;5.97;0.93;;;;;;;10.26;100.00;98629.16;5089228;28;20052;-59
2024/03/15 02:03:41;;;;;;;2.72;1.00;;;;;;;10.25;100.00;98615.72;5090238;28;20405;-59
2024/03/15 02:06:08;;;;;;;4.85;1.52;;;;;;;10.22;100.00;98617.28;5088805;28;20044;-58
2024/03/15 02:08:38;;;;;;;3.88;0.73;;;;;;;10.22;100.00;98609.00;5088994;28;20063;-59
2024/03/15 02:11:05;;;;;;;2.15;0.38;;;;;;;10.22;100.00;98633.88;5075697;28;20056;-59
2024/03/15 02:13:32;;;;;;;0.47;0.45;;;;;;;10.22;100.00;98627.56;5088440;28;20150;-60
2024/03/15 02:16:00;;;;;;;0.65;0.40;;;;;;;10.21;100.00;98637.84;5075778;28;20040;-59
2024/03/15 02:18:28;;;;;;;0.65;0.40;;;;;;;10.20;100.00;98641.78;5075405;28;20055;-59
2024/03/15 02:20:56;;;;;;;2.55;0.30;;;;;;;10.21;100.00;98631.53;5077645;28;20517;-59
2024/03/15 02:23:24;;;;;;;1.35;0.47;;;;;;;10.20;100.00;98644.56;5089940;28;20051;-59
2024/03/15 02:25:56;;;;;;;0.32;0.25;;;;;;;10.18;100.00;98652.47;5088508;28;20048;-59
2024/03/15 02:28:23;;;;;;;1.73;0.20;;;;;;;10.17;100.00;98648.09;5089132;28;20049;-59
2024/03/15 02:30:50;;;;;;;0.30;0.20;;;;;;;10.15;100.00;98647.72;5088168;28;20044;-59
2024/03/15 02:33:18;;;;;;;0.20;0.20;;;;;;;10.13;100.00;98663.91;5088519;28;20497;-59
2024/03/15 02:35:46;;;;;;;0.63;0.20;;;;;;;10.11;100.00;98663.47;5087091;28;20056;-59
2024/03/15 02:38:13;;;;;;;0.93;0.20;;;;;;;10.10;100.00;98653.59;5087352;28;20040;-59
2024/03/15 02:40:41;;;;;;;0.10;0.10;;;;;;;10.08;100.00;98667.03;5078636;28;20052;-59
2024/03/15 02:43:08;;;;;;;0.85;0.10;;;;;;;10.07;100.00;98657.16;5084661;28;20060;-59
2024/03/15 02:45:35;;;;;;;0.57;0.20;;;;;;;10.06;100.00;98657.56;5088713;28;20055;-59
2024/03/15 02:48:03;;;;;;;0.20;0.10;;;;;;;10.04;100.00;98660.69;5084697;28;20044;-59
2024/03/15 02:50:30;;;;;;;0.00;0.00;;;;;;;10.02;100.00;98662.28;5087725;28;20063;-59
2024/03/15 02:52:59;;;;;;;0.10;0.10;;;;;;;9.95;100.00;98663.06;5087946;28;20048;-59
2024/03/15 02:55:27;;;;;;;0.38;0.38;;;;;;;9.90;100.00;98660.66;5087933;28;20056;-59
2024/03/15 02:57:54;;;;;;;0.35;0.10;;;;;;;9.87;100.00;98663.44;5086056;28;20051;-59
2024/03/15 03:02:55;;;;;;;1.25;0.10;;;;;;;9.80;100.00;98661.41;5063255;22;20052;-61
2024/03/15 03:05:23;;;;;;;0.40;0.25;;;;;;;9.77;100.00;98656.66;5050408;28;20052;-61
2024/03/15 03:07:50;;;;;;;0.35;0.10;;;;;;;9.78;100.00;98663.78;5067502;28;20057;-61
2024/03/15 03:10:17;;;;;;;0.57;0.22;;;;;;;9.75;100.00;98664.56;5053609;28;20049;-61
2024/03/15 03:12:45;;;;;;;0.73;0.25;;;;;;;9.73;100.00;98677.97;5067020;28;20059;-61
2024/03/15 03:15:13;;;;;;;1.80;0.28;;;;;;;9.71;100.00;98669.31;5067099;28;20537;-61
2024/03/15 03:17:45;;;;;;;0.35;0.30;;;;;;;9.68;100.00;98670.06;5067536;28;20114;-61
2024/03/15 03:20:19;;;;;;;2.67;0.20;;;;;;;9.66;100.00;98664.16;5067382;28;20044;-61
2024/03/15 03:22:51;;;;;;;1.35;0.30;;;;;;;9.63;100.00;98664.94;5067135;28;20056;-61
2024/03/15 03:25:19;;;;;;;0.43;0.30;;;;;;;9.62;100.00;98666.09;5049257;28;20053;-61
2024/03/15 03:27:47;;;;;;;0.22;0.20;;;;;;;9.58;100.00;98671.59;5067041;28;20049;-61
2024/03/15 03:30:14;;;;;;;0.65;0.20;;;;;;;9.59;100.00;98666.88;5066916;28;20060;-61
2024/03/15 03:32:42;;;;;;;2.45;0.30;;;;;;;9.59;100.00;98672.41;5066967;28;20048;-61
2024/03/15 03:35:09;;;;;;;0.77;0.30;;;;;;;9.61;100.00;98672.81;5048369;28;20045;-61
2024/03/15 03:37:37;;;;;;;0.43;0.30;;;;;;;9.60;100.00;98690.56;5048901;28;20048;-61
2024/03/15 03:40:17;;;;;;;0.95;0.30;;;;;;;9.60;100.00;98685.03;5049287;28;20482;-61
2024/03/15 03:42:44;;;;;;;0.40;0.40;;;;;;;9.60;100.00;98693.34;5048919;28;20053;-61
2024/03/15 03:45:22;;;;;;;1.23;0.20;;;;;;;9.60;100.00;98696.09;5048558;28;20052;-61
2024/03/15 03:47:50;;;;;;;0.25;0.15;;;;;;;9.59;100.00;98705.56;5036774;28;20048;-61
2024/03/15 03:50:18;;;;;;;0.40;0.20;;;;;;;9.58;100.00;98698.47;5071225;28;20398;-61
2024/03/15 03:52:46;;;;;;;1.55;0.17;;;;;;;9.58;100.00;98701.22;5052777;28;20497;-62
2024/03/15 03:55:14;;;;;;;0.30;0.20;;;;;;;9.58;100.00;98698.47;5071024;28;20053;-61
2024/03/15 03:57:42;;;;;;;0.20;0.20;;;;;;;9.56;100.00;98703.56;5052803;28;20498;-61
2024/03/15 04:00:16;;;;;;;1.52;0.30;;;;;;;9.55;100.00;98696.47;5070214;28;20072;-61
2024/03/15 04:02:46;;;;;;;2.53;0.30;;;;;;;9.53;100.00;98707.13;5049557;28;20087;-61
2024/03/15 04:05:15;;;;;;;2.40;0.30;;;;;;;9.51;100.00;98714.97;5050927;28;20063;-61
2024/03/15 04:07:44;;;;;;;1.77;0.15;;;;;;;9.48;100.00;98707.47;5037048;28;20494;-61
2024/03/15 04:10:14;;;;;;;1.13;0.40;;;;;;;9.46;100.00;98707.06;5049254;28;20053;-61
2024/03/15 04:12:45;;;;;;;2.33;0.20;;;;;;;9.43;100.00;98708.63;5050112;28;20503;-61
2024/03/15 04:15:14;;;;;;;2.45;0.52;;;;;;;9.42;100.00;98709.03;5049377;28;20387;-62
2024/03/15 04:17:57;;;;;;;0.20;0.20;;;;;;;9.40;100.00;98719.69;5049599;28;20049;-61
2024/03/15 04:20:26;;;;;;;1.95;0.35;;;;;;;9.38;100.00;98724.78;5050194;28;20048;-62
2024/03/15 04:22:55;;;;;;;0.73;0.20;;;;;;;9.35;100.00;98717.25;5050838;28;20053;-62
2024/03/15 04:25:24;;;;;;;1.55;0.30;;;;;;;9.32;100.00;98729.88;5048800;28;20049;-62
2024/03/15 04:27:54;;;;;;;0.25;0.17;;;;;;;9.29;100.00;98725.16;5048904;28;20498;-61
2024/03/15 04:30:24;;;;;;;1.38;0.20;;;;;;;9.28;100.00;98728.28;5044526;28;20134;-61
2024/03/15 04:32:55;;;;;;;0.80;0.10;;;;;;;9.25;100.00;98740.09;5042076;28;20087;-61
2024/03/15 04:35:23;;;;;;;1.50;0.30;;;;;;;9.23;100.00;98736.91;5048788;28;20045;-62
2024/03/15 04:37:51;;;;;;;1.58;0.20;;;;;;;9.21;100.00;98726.28;5050062;28;20414;-62
2024/03/15 04:40:19;;;;;;;0.17;0.15;;;;;;;9.22;100.00;98735.31;5050641;28;20455;-62
2024/03/15 04:42:46;;;;;;;1.70;0.35;;;;;;;9.21;100.00;98739.28;5050040;28;20052;-62
2024/03/15 04:45:17;;;;;;;0.08;0.08;;;;;;;9.18;100.00;98746.38;5037046;28;20422;-62
2024/03/15 04:47:45;;;;;;;0.43;0.25;;;;;;;9.16;100.00;98743.97;5050216;28;20056;-62
2024/03/15 04:50:13;;;;;;;0.20;0.10;;;;;;;9.17;100.00;98748.34;5048372;28;20041;-62
2024/03/15 04:52:41;;;;;;;1.00;0.20;;;;;;;9.16;100.00;98755.00;5049925;28;20060;-62
2024/03/15 04:55:09;;;;;;;1.00;0.22;;;;;;;9.17;100.00;98751.09;5050163;28;20049;-62
2024/03/15 04:57:38;;;;;;;1.17;0.30;;;;;;;9.15;100.00;98750.69;5049863;28;20470;-62
2024/03/15 05:00:17;;;;;;;2.42;0.25;;;;;;;9.16;100.00;98768.81;5048904;28;20053;-61
2024/03/15 05:02:47;;;;;;;1.15;0.25;;;;;;;9.16;100.00;98770.78;5067745;28;20532;-62
2024/03/15 05:05:17;;;;;;;1.75;0.73;;;;;;;9.16;100.00;98774.34;5052118;28;20045;-62
2024/03/15 05:07:46;;;;;;;4.05;0.30;;;;;;;9.14;100.00;98781.44;5069327;28;20065;-61
2024/03/15 05:10:15;;;;;;;0.43;0.10;;;;;;;9.12;100.00;98792.88;5069694;28;20045;-62
2024/03/15 05:12:44;;;;;;;0.10;0.10;;;;;;;9.12;100.00;98778.25;5069280;28;20056;-62
2024/03/15 05:15:12;;;;;;;1.10;0.13;;;;;;;9.12;100.00;98781.03;5069327;28;20059;-62
2024/03/15 05:17:41;;;;;;;1.75;0.30;;;;;;;9.11;100.00;98782.97;5038017;28;20053;-62
2024/03/15 05:20:15;;;;;;;1.88;0.30;;;;;;;9.08;100.00;98792.03;5069692;28;20036;-62
2024/03/15 05:22:45;;;;;;;2.92;0.38;;;;;;;9.09;100.00;98801.91;5069066;28;20587;-62
2024/03/15 05:25:14;;;;;;;0.23;0.20;;;;;;;9.09;100.00;98804.66;5069461;28;21513;-62
2024/03/15 05:27:43;;;;;;;1.35;0.20;;;;;;;9.08;100.00;98797.53;5051636;28;20053;-62
2024/03/15 05:30:11;;;;;;;0.22;0.08;;;;;;;9.10;100.00;98805.47;5068898;28;20414;-62
2024/03/15 05:32:39;;;;;;;2.72;0.10;;;;;;;9.11;100.00;98812.56;5051029;28;20055;-62
2024/03/15 05:35:11;;;;;;;1.00;0.20;;;;;;;9.11;100.00;98824.41;5051906;28;20044;-61
2024/03/15 05:37:38;;;;;;;2.13;0.25;;;;;;;9.08;100.00;98836.19;5049024;28;20056;-61
2024/03/15 05:40:06;;;;;;;1.38;0.32;;;;;;;9.06;100.00;98843.28;5068481;28;20506;-61
2024/03/15 05:42:35;;;;;;;0.43;0.20;;;;;;;9.05;100.00;98830.66;5065899;28;20048;-62
2024/03/15 05:45:04;;;;;;;1.98;0.20;;;;;;;9.04;100.00;98838.16;5065123;28;20410;-61
2024/03/15 05:47:32;;;;;;;0.80;0.15;;;;;;;9.03;100.00;98844.03;5068388;28;20052;-61
2024/03/15 05:50:02;;;;;;;2.22;0.10;;;;;;;9.01;100.00;98841.66;5034260;28;20041;-62
2024/03/15 05:52:32;;;;;;;1.55;0.10;;;;;;;8.99;100.00;98851.50;5068077;28;20425;-62
2024/03/15 05:55:03;;;;;;;1.40;0.30;;;;;;;8.99;100.00;98857.00;5037203;28;20044;-62
2024/03/15 05:57:30;;;;;;;1.85;0.30;;;;;;;8.98;100.00;98850.69;5067282;28;20521;-62
2024/03/15 06:00:07;;;;;;;0.30;0.10;;;;;;;8.97;100.00;98867.66;5068625;28;20051;-61
2024/03/15 06:02:42;;;;;;;1.65;0.43;;;;;;;8.95;100.00;98862.50;5068162;28;20514;-62
2024/03/15 06:05:09;;;;;;;1.85;0.30;;;;;;;8.93;100.00;98873.13;5068683;28;20093;-62
2024/03/15 06:07:36;;;;;;;0.65;0.17;;;;;;;8.92;100.00;98870.75;5066821;28;20471;-61
2024/03/15 06:10:04;;;;;;;0.22;0.20;;;;;;;8.91;100.00;98875.47;5067858;28;20458;-61
2024/03/15 06:12:31;;;;;;;0.47;0.30;;;;;;;8.92;100.00;98877.06;5050109;28;20490;-62
2024/03/15 06:14:59;;;;;;;2.97;0.20;;;;;;;8.94;100.00;98885.75;5068174;28;20053;-61
2024/03/15 06:17:26;;;;;;;1.05;0.30;;;;;;;8.94;100.00;98884.97;5049482;28;20044;-61
2024/03/15 06:19:55;;;;;;;2.90;0.40;;;;;;;8.92;100.00;98888.09;5050443;28;20053;-62
2024/03/15 06:22:24;;;;;;;0.40;0.20;;;;;;;8.92;100.00;98888.09;5067221;28;20040;-61
2024/03/15 06:24:58;;;;;;;0.73;0.20;;;;;;;8.94;100.00;98901.53;5067353;28;20056;-61
2024/03/15 06:27:26;;;;;;;1.10;0.28;;;;;;;8.92;100.00;98895.59;5049067;28;20048;-62
2024/03/15 06:29:55;;;;;;;1.95;0.82;;;;;;;8.90;100.00;98889.63;5067174;28;20040;-62
2024/03/15 06:32:26;;;;;;;2.20;0.20;;;;;;;8.89;100.00;98899.09;5067613;28;20044;-61
2024/03/15 06:34:55;;;;;;;2.80;0.87;;;;;;;8.86;100.00;98906.19;5058303;28;20084;-61
2024/03/15 06:37:23;;;;;;;0.43;0.35;;;;;;;8.84;100.00;98908.50;5054990;28;20465;-61
2024/03/15 06:42:34;;;;;;;0.25;0.25;;;;;;;8.85;100.00;98920.34;5067431;28;20455;-63
2024/03/15 06:45:08;;;;;;;1.65;0.30;;;;;;;8.84;100.00;98925.06;5049553;28;20433;-62
2024/03/15 06:47:39;;;;;;;2.05;0.20;;;;;;;8.84;100.00;98936.09;5048621;28;20063;-62
2024/03/15 06:52:41;;;;;;;1.55;0.40;;;;;;;8.80;100.00;98940.78;5067348;28;20056;-61
2024/03/15 06:55:10;;;;;;;2.00;0.25;;;;;;;8.80;100.00;98943.56;5044079;28;20056;-61
2024/03/15 06:57:39;;;;;;;2.92;0.30;;;;;;;8.79;100.00;98944.72;5048728;28;20056;-62
2024/03/15 07:00:11;;;;;;;0.60;0.28;;;;;;;8.80;100.00;98949.06;5047369;28;20045;-61
2024/03/15 07:02:41;;;;;;;;;;;;;;;8.80;100.00;98951.84;5066342;28;20049;-62
2024/03/15 07:05:16;;;;;;;2.75;0.30;;;;;;;8.80;100.00;98954.59;5066872;28;20456;-61
2024/03/15 07:07:45;;;;;;;0.45;0.32;;;;;;;8.79;100.00;98961.28;5066446;28;20410;-61
2024/03/15 07:10:13;;;;;;;0.47;0.35;;;;;;;8.79;100.00;98977.81;5047528;28;20535;-62
2024/03/15 07:12:41;;;;;;;1.65;0.30;;;;;;;8.77;100.00;98987.66;5066089;28;20264;-62
2024/03/15 07:15:09;;;;;;;0.40;0.40;;;;;;;8.74;100.00;98989.19;5066998;28;20386;-62
2024/03/15 07:17:38;;;;;;;2.67;0.93;;;;;;;8.73;100.00;98990.38;5066790;28;20456;-62
2024/03/15 07:20:12;;;;;;;2.97;0.40;;;;;;;8.72;100.00;98988.78;5066833;28;20509;-62
2024/03/15 07:22:41;;;;;;;1.50;0.40;;;;;;;8.66;100.00;98995.78;5031791;28;20565;-62
2024/03/15 07:25:14;;;;;;;0.85;0.85;;;;;;;8.66;100.00;99004.06;5049216;28;20056;-62
2024/03/15 07:27:42;;;;;;;1.10;0.30;;;;;;;8.65;100.00;99009.97;5066710;28;20048;-62
2024/03/15 07:30:13;;;;;;;1.45;0.38;;;;;;;8.58;100.00;99005.94;5066464;28;20667;-62
2024/03/15 07:32:40;;;;;;;0.82;0.50;;;;;;;8.57;100.00;99015.41;5066022;28;20048;-62
2024/03/15 07:35:09;;;;;;;3.42;0.68;;;;;;;8.58;100.00;99010.66;5049848;28;20053;-62
2024/03/15 07:37:39;;;;;;;1.27;0.75;;;;;;;8.58;100.00;99016.19;5066979;28;20044;-62
2024/03/15 07:40:10;;;;;;;2.15;0.40;;;;;;;8.57;100.00;99023.69;5049094;28;20406;-61
2024/03/15 07:42:38;;;;;;;3.47;0.40;;;;;;;8.56;100.00;99024.84;5048776;28;20050;-61
2024/03/15 07:45:06;;;;;;;3.47;0.30;;;;;;;8.56;100.00;99027.59;5066677;28;20573;-61
2024/03/15 07:47:33;;;;;;;1.58;0.50;;;;;;;8.55;100.00;99033.50;5048535;28;20058;-61
2024/03/15 07:50:01;;;;;;;4.25;1.00;;;;;;;8.56;100.00;99037.81;5049451;28;20059;-60
2024/03/15 07:52:29;;;;;;;2.00;0.60;;;;;;;8.55;100.00;99041.78;5065988;28;20055;-62
2024/03/15 07:54:56;;;;;;;2.45;0.47;;;;;;;8.54;100.00;99048.44;5066026;28;20405;-60
2024/03/15 07:57:24;;;;;;;1.17;0.50;;;;;;;8.56;100.00;99062.66;5066178;28;20581;-60
2024/03/15 07:59:51;;;;;;;4.93;0.82;;;;;;;8.54;100.00;99051.22;5053881;28;20055;-59
2024/03/15 08:02:19;;;;;;;1.98;0.75;;;;;;;8.52;100.00;99067.34;5048261;28;20056;-59
2024/03/15 08:04:47;;;;;;;4.07;0.68;;;;;;;8.52;100.00;99062.59;5066259;28;20422;-59
2024/03/15 08:07:15;;;;;;;1.45;0.82;;;;;;;8.53;100.00;99066.16;5048558;28;20048;-58
2024/03/15 08:09:45;;;;;;;1.27;1.10;;;;;;;8.55;100.00;99072.88;5056935;28;20052;-59
2024/03/15 08:12:14;;;;;;;2.88;1.00;;;;;;;8.55;100.00;99077.63;5065831;28;20041;-59
2024/03/15 08:14:42;;;;;;;1.67;1.02;;;;;;;8.56;100.00;99085.53;5048098;28;20052;-57
2024/03/15 08:17:10;;;;;;;9.70;3.38;;;;;;;8.58;100.00;99098.94;5066364;28;20059;-57
2024/03/15 08:19:40;;;;;;;1.50;1.15;;;;;;;8.62;100.00;99099.78;5048020;28;20082;-58
2024/03/15 08:22:08;;;;;;;1.77;1.13;;;;;;;8.65;100.00;99098.25;5066470;28;20052;-60
2024/03/15 08:24:37;;;;;;;3.70;1.27;;;;;;;8.67;100.00;99106.94;5045559;28;20040;-59
2024/03/15 08:27:07;;;;;;;1.00;0.90;;;;;;;8.69;100.00;99110.91;5066365;28;20048;-60
2024/03/15 08:29:39;;;;;;;5.28;1.73;;;;;;;8.69;100.00;99116.44;5066949;28;20056;-60
2024/03/15 08:32:07;;;;;;;3.25;1.30;;;;;;;8.72;100.00;99126.72;5065893;28;20071;-60
2024/03/15 08:34:36;;;;;;;3.00;0.90;;;;;;;8.74;100.00;99129.91;5049780;28;20453;-61
2024/03/15 08:37:05;;;;;;;4.78;1.45;;;;;;;8.76;100.00;99138.63;5051791;28;20049;-60
2024/03/15 08:39:32;;;;;;;3.92;1.30;;;;;;;8.75;100.00;99148.06;5060611;28;20036;-57
2024/03/15 08:41:59;;;;;;;13.27;11.68;;;;;;;8.76;100.00;99141.41;5068641;28;20055;-58
2024/03/15 08:44:27;;;;;;;17.27;11.10;;;;;;;8.79;100.00;99157.19;5067853;28;20055;-60
2024/03/15 08:46:54;;;;;;;54.92;37.33;;;;;;;8.81;100.00;99159.59;5070084;28;20044;-59
2024/03/15 08:49:23;;;;;;;3.33;2.08;;;;;;;8.79;100.00;99168.22;5069456;28;20052;-60
2024/03/15 08:51:51;;;;;;;1.85;0.63;;;;;;;8.77;100.00;99178.03;5052301;28;20049;-61
2024/03/15 08:54:19;;;;;;;0.95;0.50;;;;;;;8.74;100.00;99174.06;5069257;28;20037;-61
2024/03/15 08:56:47;;;;;;;7.53;1.55;;;;;;;8.74;100.00;99185.09;5068727;28;20071;-60
2024/03/15 08:59:14;;;;;;;0.57;0.20;;;;;;;8.74;100.00;99193.38;5064205;28;20052;-60
2024/03/15 09:01:42;;;;;;;5.40;1.23;;;;;;;8.72;100.00;99195.72;5069779;28;20395;-58
2024/03/15 09:04:10;;;;;;;0.82;0.60;;;;;;;8.74;100.00;99196.13;5051467;28;20053;-58
2024/03/15 09:06:37;;;;;;;2.10;0.50;;;;;;;8.77;100.00;99200.09;5069369;28;20048;-56
2024/03/15 09:09:10;;;;;;;2.15;0.50;;;;;;;8.80;100.00;99202.94;5051142;28;20045;-58
2024/03/15 09:11:39;;;;;;;1.40;0.70;;;;;;;8.89;100.00;99209.00;5051493;28;20051;-60
2024/03/15 09:14:06;;;;;;;2.20;0.57;;;;;;;9.04;100.00;99219.06;5067380;28;20555;-58
2024/03/15 09:16:41;;;;;;;3.10;0.40;;;;;;;9.09;100.00;99218.75;5069437;28;20056;-59
2024/03/15 09:19:09;;;;;;;1.75;1.25;;;;;;;9.17;100.00;99220.44;5051165;28;20048;-59
2024/03/15 09:21:40;;;;;;;1.05;0.75;;;;;;;9.32;100.00;99221.44;5051181;28;20060;-60
2024/03/15 09:24:08;;;;;;;3.10;1.60;;;;;;;9.49;100.00;99236.66;5035001;28;20047;-60
2024/03/15 09:26:36;;;;;;;4.53;0.85;;;;;;;9.67;100.00;99237.69;5067687;28;20060;-63
2024/03/15 09:29:06;;;;;;;1.60;0.70;;;;;;;9.90;100.00;99240.34;5069453;28;20037;-61
2024/03/15 09:31:40;;;;;;;2.13;0.65;;;;;;;10.18;100.00;99248.97;5069317;28;20040;-60
2024/03/15 09:34:28;;;;;;;1.02;0.50;;;;;;;10.50;100.00;99258.41;5068589;28;20536;-61
2024/03/15 09:37:02;;;;;;;8.23;0.90;;;;;;;10.45;100.00;99269.03;5067891;28;20442;-60
2024/03/15 09:39:30;;;;;;;4.47;0.93;;;;;;;10.28;100.00;99275.94;5051284;28;20051;-61
2024/03/15 09:41:58;;;;;;;2.20;0.70;;;;;;;10.03;100.00;99275.66;5051421;28;20048;-61
2024/03/15 09:44:25;;;;;;;4.65;0.82;;;;;;;9.76;100.00;99286.00;5067947;28;20055;-62
2024/03/15 09:46:53;;;;;;;3.55;0.40;;;;;;;9.62;100.00;99291.31;5037263;28;20052;-61
2024/03/15 09:49:21;;;;;;;3.08;0.63;;;;;;;9.50;100.00;99299.03;5068308;28;20045;-62
2024/03/15 09:51:52;;;;;;;5.28;0.75;;;;;;;9.43;100.00;99299.72;5049289;28;20045;-61
2024/03/15 09:54:20;;;;;;;6.97;1.10;;;;;;;9.44;100.00;99300.53;5068031;28;20059;-61
2024/03/15 09:56:50;;;;;;;2.95;1.27;;;;;;;9.47;100.00;99306.09;5068413;28;20071;-61
2024/03/15 09:59:28;;;;;;;4.25;0.75;;;;;;;9.49;100.00;99319.53;5068664;28;20048;-61
2024/03/15 10:01:55;;;;;;;3.50;0.73;;;;;;;9.60;100.00;99323.25;5068036;28;20060;-61
2024/03/15 10:04:25;;;;;;;5.30;1.00;;;;;;;9.70;100.00;99331.69;5066284;28;20398;-61
2024/03/15 10:06:52;;;;;;;6.43;0.82;;;;;;;9.84;100.00;99333.06;5059968;28;20402;-60
2024/03/15 10:09:19;;;;;;;2.38;0.50;;;;;;;9.93;100.00;99355.72;5067477;28;20063;-61
2024/03/15 10:11:47;;;;;;;1.08;0.30;;;;;;;9.98;100.00;99352.59;5068071;28;20410;-61
2024/03/15 10:14:14;;;;;;;1.73;0.70;;;;;;;9.98;100.00;99361.69;5061129;28;20048;-61
2024/03/15 10:16:42;;;;;;;1.60;0.63;;;;;;;9.88;100.00;99365.09;5067590;28;20052;-61
2024/03/15 10:19:12;;;;;;;4.80;1.45;;;;;;;9.84;100.00;99369.78;5050090;28;20057;-61
2024/03/15 10:21:41;;;;;;;3.50;0.98;;;;;;;9.86;100.00;99375.75;5067149;28;20056;-61
2024/03/15 10:24:09;;;;;;;3.75;0.70;;;;;;;9.91;100.00;99380.94;5050379;28;20048;-61
2024/03/15 10:26:40;;;;;;;1.50;0.75;;;;;;;9.89;100.00;99383.28;5067425;28;20083;-61
2024/03/15 10:29:11;;;;;;;2.45;0.63;;;;;;;9.89;100.00;99399.06;5067636;28;20068;-61
2024/03/15 10:31:38;;;;;;;1.98;0.40;;;;;;;9.90;100.00;99395.16;5067834;28;20535;-61
2024/03/15 10:34:11;;;;;;;1.00;0.38;;;;;;;9.90;100.00;99400.69;5050230;28;20048;-61
2024/03/15 10:36:40;;;;;;;1.80;0.40;;;;;;;10.29;100.00;99408.38;5067984;28;20484;-60
2024/03/15 10:39:11;;;;;;;3.03;0.40;;;;;;;10.58;100.00;99414.25;5050348;28;20489;-60
2024/03/15 10:41:40;;;;;;;1.00;0.45;;;;;;;10.62;100.00;99410.34;5067037;28;20044;-61
2024/03/15 10:44:14;;;;;;;4.68;0.80;;;;;;;10.58;100.00;99425.31;5067727;28;20052;-61
2024/03/15 10:46:42;;;;;;;0.93;0.63;;;;;;;10.42;100.00;99430.25;5046075;28;20049;-62
2024/03/15 10:49:14;;;;;;;2.40;0.40;;;;;;;10.32;100.00;99435.28;5060103;28;20509;-61
2024/03/15 10:51:45;;;;;;;2.53;0.45;;;;;;;10.29;100.00;99447.09;5067553;28;20048;-61
2024/03/15 10:54:19;;;;;;;6.43;0.60;;;;;;;10.23;100.00;99445.81;5067380;28;20041;-61
2024/03/15 10:56:47;;;;;;;1.60;0.35;;;;;;;10.18;100.00;99459.97;5066876;28;20456;-62
2024/03/15 10:59:15;;;;;;;3.78;0.77;;;;;;;10.13;100.00;99460.31;5042886;28;20044;-61
2024/03/15 11:01:42;;;;;;;1.98;0.28;;;;;;;10.12;99.90;99464.22;5066315;28;20057;-61
2024/03/15 11:04:12;;;;;;;2.38;0.52;;;;;;;10.08;99.72;99465.31;5067324;28;20449;-60
2024/03/15 11:06:44;;;;;;;3.25;0.60;;;;;;;10.06;99.43;99481.50;5048982;28;20056;-61
2024/03/15 11:09:20;;;;;;;2.95;0.88;;;;;;;10.03;99.28;99483.03;5066885;28;20047;-61
2024/03/15 11:12:01;;;;;;;2.63;0.75;;;;;;;10.04;99.06;99489.34;5049222;28;20059;-61
2024/03/15 11:14:34;;;;;;;2.53;0.85;;;;;;;10.04;98.81;99490.16;5052752;28;20044;-61
2024/03/15 11:17:06;;;;;;;1.50;0.77;;;;;;;10.10;98.83;99493.41;5062784;28;20603;-61
2024/03/15 11:19:41;;;;;;;3.05;1.10;;;;;;;10.15;98.41;99498.63;5060886;28;20409;-61
2024/03/15 11:22:19;;;;;;;2.97;0.50;;;;;;;10.23;98.27;99497.56;5064017;28;20505;-62
2024/03/15 11:24:48;;;;;;;3.97;0.57;;;;;;;10.34;98.22;99499.31;5066990;28;20055;-62
2024/03/15 11:27:16;;;;;;;3.03;0.80;;;;;;;10.52;97.53;99510.63;5049196;28;20048;-61
2024/03/15 11:29:47;;;;;;;3.22;0.93;;;;;;;10.66;96.78;99521.09;5046334;28;20052;-61
2024/03/15 11:32:15;;;;;;;3.22;0.45;;;;;;;10.68;96.59;99529.81;5054039;28;20394;-61
2024/03/15 11:34:43;;;;;;;4.43;0.88;;;;;;;10.61;96.28;99535.28;5066111;28;20051;-62
2024/03/15 11:37:13;;;;;;;2.10;0.52;;;;;;;10.51;96.15;99541.47;5067092;28;20033;-62
2024/03/15 11:39:45;;;;;;;3.67;0.70;;;;;;;10.43;95.94;99542.53;5066852;28;20529;-62
2024/03/15 11:42:12;;;;;;;4.07;0.55;;;;;;;10.34;95.63;99543.59;5049125;28;20053;-61
2024/03/15 11:44:40;;;;;;;3.67;0.90;;;;;;;10.31;95.58;99554.59;5067382;28;20044;-61
2024/03/15 11:47:09;;;;;;;3.13;0.60;;;;;;;10.26;94.74;99563.22;5066426;28;20613;-62